createdAt,value
2023-04-30T00:01:22.297Z,34.60
2023-04-30T00:03:50.585Z,35.28
2023-04-30T00:06:20.490Z,33.28
2023-04-30T00:08:48.649Z,32.88
2023-04-30T00:11:17.032Z,34.45
2023-04-30T00:13:45.150Z,33.97
2023-04-30T00:16:13.647Z,34.05
2023-04-30T00:18:41.873Z,30.63
2023-04-30T00:21:10.248Z,32.65
2023-04-30T00:23:39.701Z,32.25
2023-04-30T00:26:08.122Z,34.75
2023-04-30T00:28:36.202Z,34.25
2023-04-30T00:31:06.855Z,35.60
2023-04-30T00:33:34.987Z,35.30
2023-04-30T00:36:03.372Z,32.35
2023-04-30T00:38:31.540Z,33.30
2023-04-30T00:41:01.880Z,32.95
2023-04-30T00:43:29.978Z,31.75
2023-04-30T00:45:58.730Z,33.88
2023-04-30T00:48:27.815Z,32.67
2023-04-30T00:50:56.205Z,35.22
2023-04-30T00:53:24.441Z,35.33
2023-04-30T00:55:53.274Z,35.80
2023-04-30T00:58:22.963Z,38.80
2023-04-30T01:03:47.470Z,40.38
2023-04-30T01:06:16.174Z,40.28
2023-04-30T01:08:44.706Z,42.42
2023-04-30T01:11:21.129Z,43.28
2023-04-30T01:13:54.642Z,43.17
2023-04-30T01:16:26.652Z,41.03
2023-04-30T01:19:00.657Z,43.22
2023-04-30T01:21:30.917Z,42.95
2023-04-30T01:24:15.089Z,43.85
2023-04-30T01:26:54.549Z,45.83
2023-04-30T01:29:26.075Z,44.47
2023-04-30T01:31:54.552Z,42.40
2023-04-30T01:34:23.966Z,42.90
2023-04-30T01:37:05.054Z,45.92
2023-04-30T01:39:42.076Z,41.95
2023-04-30T01:42:16.865Z,41.42
2023-04-30T01:44:56.084Z,41.75
2023-04-30T01:47:34.700Z,42.05
2023-04-30T01:50:11.705Z,40.65
2023-04-30T01:52:41.896Z,40.55
2023-04-30T01:55:12.937Z,37.45
2023-04-30T01:57:44.068Z,35.13
2023-04-30T02:00:15.013Z,35.38
2023-04-30T02:02:43.564Z,37.03
2023-04-30T02:05:11.760Z,36.88
2023-04-30T02:07:41.791Z,36.20
2023-04-30T02:10:11.883Z,35.88
2023-04-30T02:12:40.370Z,36.78
2023-04-30T02:15:10.069Z,39.25
2023-04-30T02:17:40.003Z,38.70
2023-04-30T02:20:09.252Z,38.75
2023-04-30T02:22:37.876Z,39.10
2023-04-30T02:25:06.744Z,36.13
2023-04-30T02:27:35.328Z,36.85
2023-04-30T02:30:04.357Z,36.15
2023-04-30T02:32:33.009Z,35.42
2023-04-30T02:35:02.731Z,34.30
2023-04-30T02:37:31.147Z,33.72
2023-04-30T02:39:59.562Z,34.88
2023-04-30T02:42:27.919Z,33.95
2023-04-30T02:44:56.039Z,33.55
2023-04-30T02:47:24.440Z,32.53
2023-04-30T02:49:53.184Z,31.80
2023-04-30T02:52:23.143Z,31.88
2023-04-30T02:54:51.446Z,33.83
2023-04-30T02:57:19.844Z,33.53
2023-04-30T02:59:47.948Z,31.35
2023-04-30T03:02:16.712Z,31.20
2023-04-30T03:04:45.031Z,32.40
2023-04-30T03:07:13.426Z,31.00
2023-04-30T03:09:42.911Z,30.58
2023-04-30T03:12:11.283Z,31.83
2023-04-30T03:14:39.427Z,30.52
2023-04-30T03:17:07.946Z,30.58
2023-04-30T03:19:36.079Z,30.13
2023-04-30T03:22:04.512Z,30.38
2023-04-30T03:24:32.712Z,29.73
2023-04-30T03:27:02.466Z,27.88
2023-04-30T03:29:30.611Z,29.50
2023-04-30T03:31:59.015Z,29.05
2023-04-30T03:34:27.222Z,28.92
2023-04-30T03:36:55.615Z,28.63
2023-04-30T03:39:23.803Z,29.30
2023-04-30T03:41:52.170Z,30.23
2023-04-30T03:44:21.639Z,29.38
2023-04-30T03:46:49.973Z,26.70
2023-04-30T03:49:18.158Z,25.75
2023-04-30T03:51:46.884Z,27.55
2023-04-30T03:54:15.080Z,25.40
2023-04-30T03:56:44.380Z,26.05
2023-04-30T03:59:12.589Z,26.80
2023-04-30T04:01:42.423Z,27.38
2023-04-30T04:04:10.843Z,26.88
2023-04-30T04:06:39.278Z,25.38
2023-04-30T04:09:07.733Z,26.27
2023-04-30T04:11:36.254Z,26.92
2023-04-30T04:14:04.809Z,25.02
2023-04-30T04:16:33.593Z,21.02
2023-04-30T04:19:04.471Z,23.60
2023-04-30T04:21:33.418Z,23.23
2023-04-30T04:24:05.343Z,22.40
2023-04-30T04:26:33.972Z,22.45
2023-04-30T04:29:02.104Z,18.45
2023-04-30T04:31:30.604Z,21.45
2023-04-30T04:34:00.344Z,19.17
2023-04-30T04:36:30.306Z,19.48
2023-04-30T04:39:01.898Z,18.38
2023-04-30T04:41:30.601Z,20.23
2023-04-30T04:43:58.862Z,20.65
2023-04-30T04:46:28.307Z,21.63
2023-04-30T04:48:56.757Z,17.98
2023-04-30T04:51:25.339Z,20.77
2023-04-30T04:53:54.804Z,21.92
2023-04-30T04:56:23.181Z,22.35
2023-04-30T04:58:51.375Z,22.42
2023-04-30T05:01:19.845Z,23.60
2023-04-30T05:03:49.090Z,23.13
2023-04-30T05:06:17.705Z,21.50
2023-04-30T05:08:45.925Z,21.10
2023-04-30T05:11:16.073Z,21.30
2023-04-30T05:13:44.243Z,18.60
2023-04-30T05:16:12.668Z,17.33
2023-04-30T05:18:40.920Z,15.50
2023-04-30T05:21:09.293Z,17.80
2023-04-30T05:23:37.384Z,21.17
2023-04-30T05:26:06.246Z,21.15
2023-04-30T05:28:35.938Z,18.30
2023-04-30T05:31:04.340Z,17.70
2023-04-30T05:33:32.474Z,14.60
2023-04-30T05:36:01.065Z,14.68
2023-04-30T05:38:29.187Z,13.50
2023-04-30T05:40:57.539Z,16.25
2023-04-30T05:43:25.776Z,19.42
2023-04-30T05:45:55.614Z,17.35
2023-04-30T05:48:23.846Z,18.85
2023-04-30T05:50:52.346Z,17.50
2023-04-30T05:53:20.476Z,17.92
2023-04-30T05:55:48.873Z,19.25
2023-04-30T05:58:17.067Z,15.10
2023-04-30T06:00:45.618Z,16.50
2023-04-30T06:03:15.619Z,17.38
2023-04-30T06:05:44.463Z,14.38
2023-04-30T06:08:12.608Z,14.85
2023-04-30T06:10:41.155Z,15.55
2023-04-30T06:13:09.384Z,15.85
2023-04-30T06:15:37.821Z,16.70
2023-04-30T06:18:06.020Z,17.13
2023-04-30T06:20:35.959Z,18.35
2023-04-30T06:23:04.114Z,19.48
2023-04-30T06:25:32.529Z,20.90
2023-04-30T06:28:01.458Z,20.63
2023-04-30T06:30:31.432Z,22.75
2023-04-30T06:32:59.601Z,21.58
2023-04-30T06:35:28.052Z,24.80
2023-04-30T06:37:57.655Z,25.88
2023-04-30T06:40:26.092Z,24.65
2023-04-30T06:42:54.617Z,24.02
2023-04-30T06:45:23.217Z,24.00
2023-04-30T06:47:52.879Z,27.30
2023-04-30T06:50:21.865Z,25.55
2023-04-30T06:52:50.042Z,26.23
2023-04-30T06:55:19.988Z,26.60
2023-04-30T06:57:48.159Z,24.67
2023-04-30T07:00:16.724Z,25.67
2023-04-30T07:02:47.748Z,23.77
2023-04-30T07:05:16.288Z,24.10
2023-04-30T07:07:44.423Z,25.60
2023-04-30T07:10:13.431Z,23.20
2023-04-30T07:12:42.890Z,25.05
2023-04-30T07:15:11.726Z,24.40
2023-04-30T07:17:41.804Z,24.52
2023-04-30T07:20:11.651Z,25.38
2023-04-30T07:22:39.844Z,24.70
2023-04-30T07:25:09.229Z,24.40
2023-04-30T07:27:37.352Z,28.48
2023-04-30T07:30:08.758Z,27.80
2023-04-30T07:32:37.322Z,44.97
2023-04-30T07:35:06.424Z,27.80
2023-04-30T07:37:35.812Z,27.70
2023-04-30T07:40:05.263Z,29.75
2023-04-30T07:42:33.658Z,27.13
2023-04-30T07:45:03.574Z,33.15
2023-04-30T07:47:33.508Z,28.70
2023-04-30T07:50:02.351Z,28.73
2023-04-30T07:52:30.549Z,28.80
2023-04-30T07:54:59.249Z,25.77
2023-04-30T07:57:27.639Z,29.52
2023-04-30T07:59:56.169Z,23.50
2023-04-30T08:02:24.715Z,22.80
2023-04-30T08:04:54.732Z,17.85
2023-04-30T08:07:22.838Z,18.38
2023-04-30T08:09:51.697Z,17.02
2023-04-30T08:12:19.862Z,17.45
2023-04-30T08:14:48.234Z,13.95
2023-04-30T08:17:16.512Z,16.02
2023-04-30T08:19:44.996Z,16.23
2023-04-30T08:22:14.605Z,15.60
2023-04-30T08:24:43.012Z,18.25
2023-04-30T08:27:11.353Z,20.45
2023-04-30T08:29:39.948Z,15.77
2023-04-30T08:32:09.225Z,18.58
2023-04-30T08:34:37.729Z,14.30
2023-04-30T08:37:05.983Z,12.82
2023-04-30T08:39:35.987Z,14.07
2023-04-30T08:42:05.695Z,12.73
2023-04-30T08:44:35.329Z,13.35
2023-04-30T08:47:04.903Z,11.77
2023-04-30T08:49:33.443Z,12.15
2023-04-30T08:52:02.168Z,12.60
2023-04-30T08:54:32.780Z,10.95
2023-04-30T08:57:02.651Z,10.73
2023-04-30T08:59:31.203Z,10.85
2023-04-30T09:01:59.723Z,10.45
2023-04-30T09:04:28.364Z,9.30
2023-04-30T09:06:59.074Z,10.25
2023-04-30T09:09:30.736Z,9.80
2023-04-30T09:12:18.823Z,9.18
2023-04-30T09:15:01.549Z,10.57
2023-04-30T09:17:30.332Z,8.93
2023-04-30T09:20:09.388Z,8.80
2023-04-30T09:22:38.321Z,8.93
2023-04-30T09:25:07.983Z,9.40
2023-04-30T09:27:37.610Z,8.45
2023-04-30T09:30:07.262Z,9.80
2023-04-30T09:32:35.398Z,8.50
2023-04-30T09:35:03.852Z,9.15
2023-04-30T09:37:38.551Z,8.50
2023-04-30T09:40:08.461Z,8.45
2023-04-30T09:42:38.124Z,8.45
2023-04-30T09:45:07.716Z,6.90
2023-04-30T09:47:36.171Z,7.20
2023-04-30T09:50:05.969Z,7.68
2023-04-30T09:52:34.088Z,6.70
2023-04-30T09:55:02.877Z,6.18
2023-04-30T09:57:32.299Z,5.72
2023-04-30T10:00:03.013Z,5.63
2023-04-30T10:02:31.296Z,5.45
2023-04-30T10:05:00.683Z,5.22
2023-04-30T10:07:36.510Z,6.00
2023-04-30T10:10:09.006Z,6.75
2023-04-30T10:12:42.268Z,5.15
2023-04-30T10:15:16.589Z,5.50
2023-04-30T10:17:48.418Z,4.90
2023-04-30T10:20:18.910Z,4.95
2023-04-30T10:22:49.307Z,4.60
2023-04-30T10:25:18.553Z,5.25
2023-04-30T10:27:47.126Z,4.72
2023-04-30T10:30:17.347Z,4.72
2023-04-30T10:32:52.158Z,5.43
2023-04-30T10:35:25.173Z,4.80
2023-04-30T10:37:58.614Z,5.15
2023-04-30T10:40:28.229Z,4.95
2023-04-30T10:42:56.680Z,4.68
2023-04-30T10:45:38.345Z,4.13
2023-04-30T10:48:07.783Z,4.88
2023-04-30T10:50:42.991Z,3.78
2023-04-30T10:53:14.685Z,4.45
2023-04-30T10:55:50.663Z,4.20
2023-04-30T10:58:29.075Z,5.50
2023-04-30T11:01:07.045Z,3.80
2023-04-30T11:03:37.107Z,4.15
2023-04-30T11:06:13.568Z,3.85
2023-04-30T11:08:45.484Z,3.75
2023-04-30T11:13:46.271Z,4.18
2023-04-30T11:16:17.602Z,4.00
2023-04-30T11:18:46.410Z,3.73
2023-04-30T11:21:15.031Z,3.47
2023-04-30T11:23:44.420Z,3.15
2023-04-30T11:26:13.048Z,3.83
2023-04-30T11:28:52.534Z,3.25
2023-04-30T11:31:22.487Z,3.45
2023-04-30T11:33:50.610Z,3.13
2023-04-30T11:36:18.987Z,4.00
2023-04-30T11:38:47.319Z,3.17
2023-04-30T11:41:16.055Z,4.22
2023-04-30T11:43:44.232Z,3.63
2023-04-30T11:46:13.784Z,3.63
2023-04-30T11:48:45.641Z,4.00
2023-04-30T11:53:47.551Z,3.35
2023-04-30T11:56:18.927Z,3.60
2023-04-30T11:58:48.447Z,3.07
2023-04-30T12:01:17.259Z,3.47
2023-04-30T12:03:48.108Z,3.70
2023-04-30T12:06:23.955Z,3.20
2023-04-30T12:08:54.261Z,3.17
2023-04-30T12:11:25.659Z,3.28
2023-04-30T12:13:55.279Z,3.22
2023-04-30T12:16:25.008Z,3.35
2023-04-30T12:18:55.660Z,3.15
2023-04-30T12:21:24.343Z,3.65
2023-04-30T12:23:52.518Z,3.00
2023-04-30T12:26:21.217Z,3.03
2023-04-30T12:28:49.800Z,2.78
2023-04-30T12:31:19.124Z,2.63
2023-04-30T12:33:57.162Z,3.30
2023-04-30T12:36:32.679Z,2.95
2023-04-30T12:39:11.213Z,2.50
2023-04-30T12:41:42.477Z,3.80
2023-04-30T12:44:18.263Z,3.97
2023-04-30T12:46:47.997Z,3.40
2023-04-30T12:49:26.108Z,3.05
2023-04-30T12:52:00.391Z,2.83
2023-04-30T12:54:29.827Z,2.35
2023-04-30T12:57:03.445Z,2.25
2023-04-30T12:59:32.869Z,2.63
2023-04-30T13:02:12.017Z,2.63
2023-04-30T13:04:42.982Z,2.58
2023-04-30T13:07:12.068Z,2.72
2023-04-30T13:09:40.730Z,2.50
2023-04-30T13:12:09.374Z,2.20
2023-04-30T13:14:37.527Z,2.55
2023-04-30T13:17:07.288Z,3.03
2023-04-30T13:19:36.233Z,2.95
2023-04-30T13:22:05.977Z,2.80
2023-04-30T13:24:34.337Z,2.03
2023-04-30T13:27:04.034Z,2.70
2023-04-30T13:29:32.850Z,2.22
2023-04-30T13:32:00.921Z,2.83
2023-04-30T13:34:29.291Z,4.00
2023-04-30T13:36:57.556Z,2.58
2023-04-30T13:39:27.409Z,2.88
2023-04-30T13:41:55.579Z,2.72
2023-04-30T13:44:24.203Z,2.28
2023-04-30T13:46:52.524Z,2.40
2023-04-30T13:49:21.044Z,2.80
2023-04-30T13:51:49.190Z,3.00
2023-04-30T13:54:17.714Z,1.88
2023-04-30T13:56:48.724Z,2.60
2023-04-30T13:59:17.300Z,2.55
2023-04-30T14:01:45.489Z,2.40
2023-04-30T14:04:14.122Z,2.42
2023-04-30T14:06:43.306Z,2.67
2023-04-30T14:09:11.763Z,2.30
2023-04-30T14:11:40.078Z,3.25
2023-04-30T14:14:10.254Z,2.53
2023-04-30T14:16:38.952Z,2.78
2023-04-30T14:19:07.360Z,1.95
2023-04-30T14:21:35.967Z,2.35
2023-04-30T14:24:04.863Z,2.33
2023-04-30T14:26:33.100Z,2.50
2023-04-30T14:29:01.647Z,2.17
2023-04-30T14:31:31.833Z,2.20
2023-04-30T14:34:00.295Z,2.25
2023-04-30T14:36:28.643Z,2.50
2023-04-30T14:38:57.290Z,2.00
2023-04-30T14:41:25.709Z,1.83
2023-04-30T14:43:54.490Z,2.78
2023-04-30T14:46:23.112Z,2.55
2023-04-30T14:48:54.128Z,2.20
2023-04-30T14:51:22.254Z,2.55
2023-04-30T14:53:50.647Z,2.28
2023-04-30T14:56:19.117Z,2.95
2023-04-30T14:58:47.538Z,2.40
2023-04-30T15:01:15.741Z,2.50
2023-04-30T15:03:44.689Z,2.42
2023-04-30T15:06:14.663Z,2.42
2023-04-30T15:08:43.058Z,3.20
2023-04-30T15:11:13.238Z,2.88
2023-04-30T15:13:41.609Z,3.70
2023-04-30T15:16:09.847Z,2.22
2023-04-30T15:18:38.275Z,2.50
2023-04-30T15:21:07.277Z,2.20
2023-04-30T15:23:37.527Z,2.40
2023-04-30T15:26:05.911Z,2.85
2023-04-30T15:28:34.542Z,2.08
2023-04-30T15:31:03.085Z,2.60
2023-04-30T15:33:31.787Z,2.40
2023-04-30T15:36:00.272Z,2.55
2023-04-30T15:38:29.025Z,2.10
2023-04-30T15:40:58.540Z,2.90
2023-04-30T15:43:27.133Z,2.45
2023-04-30T15:45:55.354Z,2.15
2023-04-30T15:48:23.772Z,2.30
2023-04-30T15:50:51.966Z,2.00
2023-04-30T15:53:20.477Z,2.15
2023-04-30T15:55:50.628Z,2.47
2023-04-30T15:58:20.414Z,2.50
2023-04-30T16:00:48.826Z,2.28
2023-04-30T16:03:17.491Z,2.58
2023-04-30T16:05:45.783Z,1.92
2023-04-30T16:08:15.002Z,3.10
2023-04-30T16:10:43.422Z,2.13
2023-04-30T16:13:11.868Z,2.53
2023-04-30T16:15:41.353Z,2.65
2023-04-30T16:18:09.969Z,1.90
2023-04-30T16:20:38.686Z,3.13
2023-04-30T16:23:07.301Z,2.28
2023-04-30T16:25:35.539Z,2.40
2023-04-30T16:28:04.282Z,2.17
2023-04-30T16:30:32.646Z,1.83
2023-04-30T16:33:02.457Z,2.17
2023-04-30T16:35:31.212Z,2.30
2023-04-30T16:37:59.840Z,2.47
2023-04-30T16:40:28.011Z,2.17
2023-04-30T16:42:56.635Z,2.47
2023-04-30T16:45:25.282Z,2.15
2023-04-30T16:47:53.824Z,2.35
2023-04-30T16:50:24.201Z,2.40
2023-04-30T16:52:52.741Z,2.63
2023-04-30T16:55:21.122Z,7.85
2023-04-30T16:57:50.612Z,3.08
2023-04-30T17:00:19.516Z,2.40
2023-04-30T17:02:49.065Z,2.45
2023-04-30T17:05:17.432Z,3.78
2023-04-30T17:07:47.178Z,4.80
2023-04-30T17:10:15.777Z,2.50
2023-04-30T17:12:44.674Z,1.60
2023-04-30T17:15:13.291Z,3.10
2023-04-30T17:17:42.047Z,3.30
2023-04-30T17:20:11.142Z,6.10
2023-04-30T17:22:40.157Z,5.05
2023-04-30T17:25:11.366Z,4.28
2023-04-30T17:27:39.888Z,4.55
2023-04-30T17:30:09.731Z,3.42
2023-04-30T17:32:38.898Z,3.50
2023-04-30T17:35:07.923Z,3.25
2023-04-30T17:37:36.557Z,2.72
2023-04-30T17:40:05.618Z,3.95
2023-04-30T17:42:35.479Z,3.88
2023-04-30T17:45:03.616Z,6.85
2023-04-30T17:47:32.468Z,2.40
2023-04-30T17:50:03.865Z,2.88
2023-04-30T17:52:35.623Z,3.45
2023-04-30T17:55:04.033Z,4.43
2023-04-30T17:57:32.831Z,3.00
2023-04-30T18:00:02.492Z,4.35
2023-04-30T18:02:31.556Z,2.70
2023-04-30T18:04:59.963Z,3.33
2023-04-30T18:07:28.471Z,4.05
2023-04-30T18:09:57.012Z,2.65
2023-04-30T18:12:26.050Z,2.60
2023-04-30T18:14:54.533Z,2.88
2023-04-30T18:17:25.802Z,2.90
2023-04-30T18:19:54.788Z,3.17
2023-04-30T18:22:23.566Z,5.10
2023-04-30T18:24:51.814Z,4.32
2023-04-30T18:27:20.175Z,4.00
2023-04-30T18:29:49.540Z,4.60
2023-04-30T18:32:18.088Z,3.88
2023-04-30T18:34:47.552Z,3.50
2023-04-30T18:37:17.792Z,3.78
2023-04-30T18:39:46.085Z,3.78
2023-04-30T18:42:14.713Z,6.72
2023-04-30T18:44:43.091Z,5.45
2023-04-30T18:47:11.694Z,6.70
2023-04-30T18:49:39.862Z,5.50
2023-04-30T18:52:10.126Z,6.03
2023-04-30T18:54:38.423Z,5.10
2023-04-30T18:57:07.853Z,5.40
2023-04-30T18:59:35.999Z,5.32
2023-04-30T19:02:04.626Z,4.28
2023-04-30T19:04:32.822Z,6.25
2023-04-30T19:07:01.257Z,6.05
2023-04-30T19:09:30.986Z,5.05
2023-04-30T19:11:59.751Z,4.90
2023-04-30T19:14:27.836Z,4.00
2023-04-30T19:16:57.276Z,3.47
2023-04-30T19:19:25.742Z,3.10
2023-04-30T19:21:54.398Z,4.22
2023-04-30T19:24:23.985Z,3.97
2023-04-30T19:26:53.970Z,3.70
2023-04-30T19:29:22.222Z,4.20
2023-04-30T19:31:50.980Z,3.33
2023-04-30T19:34:19.104Z,3.50
2023-04-30T19:36:47.572Z,4.18
2023-04-30T19:39:16.413Z,3.88
2023-04-30T19:41:45.103Z,4.05
2023-04-30T19:44:14.828Z,4.57
2023-04-30T19:46:43.475Z,4.25
2023-04-30T19:49:11.683Z,4.88
2023-04-30T19:51:40.041Z,4.82
2023-04-30T19:54:13.855Z,4.60
2023-04-30T19:56:42.596Z,5.18
2023-04-30T19:59:10.850Z,5.90
2023-04-30T20:01:41.514Z,6.22
2023-04-30T20:04:10.042Z,5.85
2023-04-30T20:06:39.003Z,5.57
2023-04-30T20:09:07.688Z,5.47
2023-04-30T20:11:36.257Z,5.38
2023-04-30T20:14:05.883Z,6.15
2023-04-30T20:16:34.313Z,6.28
2023-04-30T20:19:04.215Z,6.28
2023-04-30T20:21:32.916Z,10.70
2023-04-30T20:24:01.122Z,7.88
2023-04-30T20:26:29.910Z,8.07
2023-04-30T20:28:58.047Z,6.78
2023-04-30T20:31:31.137Z,6.35
2023-04-30T20:33:59.464Z,9.75
2023-04-30T20:36:31.501Z,12.48
2023-04-30T20:38:59.966Z,24.60
2023-04-30T20:41:28.431Z,12.90
2023-04-30T20:43:56.898Z,9.52
2023-04-30T20:46:25.419Z,6.28
2023-04-30T20:48:54.503Z,4.57
2023-04-30T20:51:23.439Z,4.78
2023-04-30T20:53:53.026Z,5.47
2023-04-30T20:56:21.438Z,7.05
2023-04-30T20:58:49.712Z,4.00
2023-04-30T21:01:18.199Z,4.05
2023-04-30T21:03:46.588Z,4.88
2023-04-30T21:06:15.916Z,7.07
2023-04-30T21:08:44.319Z,10.90
2023-04-30T21:11:14.768Z,9.88
2023-04-30T21:13:42.893Z,5.43
2023-04-30T21:16:11.309Z,4.82
2023-04-30T21:18:39.528Z,5.00
2023-04-30T21:21:09.712Z,12.70
2023-04-30T21:23:38.052Z,11.18
2023-04-30T21:26:06.517Z,18.85
2023-04-30T21:28:36.031Z,8.63
2023-04-30T21:31:06.014Z,7.07
2023-04-30T21:33:34.270Z,7.43
2023-04-30T21:36:02.988Z,5.47
2023-04-30T21:38:31.368Z,7.38
2023-04-30T21:40:59.791Z,8.40
2023-04-30T21:43:27.939Z,7.90
2023-04-30T21:46:02.633Z,7.63
2023-04-30T21:48:30.953Z,7.72
2023-04-30T21:50:59.533Z,9.48
2023-04-30T21:53:27.672Z,6.70
2023-04-30T21:55:57.164Z,5.93
2023-04-30T21:58:25.964Z,4.93
2023-04-30T22:00:54.867Z,6.40
2023-04-30T22:03:24.506Z,6.45
2023-04-30T22:05:54.481Z,6.65
2023-04-30T22:08:22.611Z,6.53
2023-04-30T22:10:51.315Z,5.72
2023-04-30T22:13:19.373Z,5.20
2023-04-30T22:15:48.807Z,5.22
2023-04-30T22:18:17.184Z,5.47
2023-04-30T22:20:47.078Z,6.20
2023-04-30T22:23:15.672Z,5.38
2023-04-30T22:25:44.338Z,5.50
2023-04-30T22:28:12.479Z,5.95
2023-04-30T22:30:40.940Z,4.95
2023-04-30T22:33:09.128Z,6.55
2023-04-30T22:35:39.143Z,6.38
2023-04-30T22:38:09.087Z,7.05
2023-04-30T22:40:40.123Z,7.05
2023-04-30T22:43:08.269Z,7.10
2023-04-30T22:45:38.183Z,8.13
2023-04-30T22:48:07.034Z,6.93
2023-04-30T22:50:35.595Z,6.93
2023-04-30T22:53:03.757Z,6.15
2023-04-30T22:55:34.908Z,7.90
2023-04-30T22:58:03.067Z,7.05
2023-04-30T23:00:31.462Z,7.50
2023-04-30T23:02:59.621Z,7.35
2023-04-30T23:05:28.064Z,7.88
2023-04-30T23:07:56.252Z,7.72
2023-04-30T23:10:24.948Z,7.65
2023-04-30T23:12:56.656Z,7.30
2023-04-30T23:15:25.320Z,7.78
2023-04-30T23:17:54.287Z,9.45
2023-04-30T23:20:23.544Z,9.45
2023-04-30T23:22:51.680Z,8.68
2023-04-30T23:25:20.147Z,8.32
2023-04-30T23:27:48.258Z,8.43
2023-04-30T23:30:18.240Z,7.95
2023-04-30T23:32:46.570Z,8.85
2023-04-30T23:35:14.968Z,7.80
2023-04-30T23:37:43.241Z,7.88
2023-04-30T23:40:12.273Z,8.43
2023-04-30T23:42:40.360Z,7.13
2023-04-30T23:45:10.630Z,8.13
2023-04-30T23:47:40.117Z,8.32
2023-04-30T23:50:09.845Z,8.25
2023-04-30T23:52:38.092Z,7.80
2023-04-30T23:55:07.309Z,7.95
2023-04-30T23:57:35.565Z,8.57
